createdAt,value
2023-09-28T00:00:25.043Z,54.22
2023-09-28T00:00:38.811Z,54.34
2023-09-28T00:00:51.701Z,54.50
2023-09-28T00:01:04.978Z,54.44
2023-09-28T00:01:18.967Z,54.49
2023-09-28T00:01:31.848Z,54.34
2023-09-28T00:01:45.403Z,54.44
2023-09-28T00:01:58.672Z,54.36
2023-09-28T00:02:11.632Z,54.20
2023-09-28T00:02:24.529Z,54.26
2023-09-28T00:02:37.568Z,54.38
2023-09-28T00:02:51.427Z,54.35
2023-09-28T00:03:08.649Z,54.30
2023-09-28T00:03:21.728Z,54.23
2023-09-28T00:03:34.704Z,54.18
2023-09-28T00:03:48.536Z,54.11
2023-09-28T00:04:01.462Z,54.06
2023-09-28T00:04:14.346Z,54.32
2023-09-28T00:04:27.177Z,54.26
2023-09-28T00:04:40.044Z,54.32
2023-09-28T00:04:52.913Z,54.22
2023-09-28T00:05:06.288Z,54.38
2023-09-28T00:05:21.115Z,54.36
2023-09-28T00:05:34.329Z,54.26
2023-09-28T00:06:18.093Z,54.02
2023-09-28T00:06:30.920Z,54.08
2023-09-28T00:06:43.878Z,54.05
2023-09-28T00:06:56.776Z,54.28
2023-09-28T00:07:09.754Z,54.12
2023-09-28T00:07:22.669Z,54.08
2023-09-28T00:07:35.519Z,54.17
2023-09-28T00:07:48.963Z,54.00
2023-09-28T00:08:01.956Z,54.00
2023-09-28T00:08:14.889Z,53.99
2023-09-28T00:08:27.735Z,53.89
2023-09-28T00:08:40.658Z,54.05
2023-09-28T00:08:53.465Z,54.03
2023-09-28T00:09:07.019Z,54.19
2023-09-28T00:09:20.196Z,54.13
2023-09-28T00:09:34.155Z,54.25
2023-09-28T00:09:47.072Z,54.35
2023-09-28T00:09:59.896Z,54.20
2023-09-28T00:10:14.068Z,54.36
2023-09-28T00:10:26.947Z,54.41
2023-09-28T00:10:39.785Z,54.49
2023-09-28T00:10:52.702Z,54.41
2023-09-28T00:11:05.918Z,54.14
2023-09-28T00:11:18.785Z,54.26
2023-09-28T00:11:31.607Z,54.22
2023-09-28T00:11:46.140Z,54.06
2023-09-28T00:11:58.975Z,53.81
2023-09-28T00:12:30.364Z,54.05
2023-09-28T00:12:44.968Z,53.95
2023-09-28T00:12:57.797Z,53.79
2023-09-28T00:13:10.611Z,54.08
2023-09-28T00:13:23.448Z,54.09
2023-09-28T00:13:36.328Z,53.90
2023-09-28T00:13:49.180Z,53.72
2023-09-28T00:14:02.056Z,53.24
2023-09-28T00:14:15.081Z,53.33
2023-09-28T00:14:27.989Z,53.79
2023-09-28T00:14:40.794Z,53.55
2023-09-28T00:14:53.611Z,53.72
2023-09-28T00:15:06.971Z,53.85
2023-09-28T00:15:22.453Z,53.64
2023-09-28T00:15:35.528Z,53.59
2023-09-28T00:15:48.334Z,53.54
2023-09-28T00:16:01.145Z,53.58
2023-09-28T00:16:13.976Z,53.48
2023-09-28T00:16:26.830Z,53.30
2023-09-28T00:16:41.324Z,53.41
2023-09-28T00:16:54.235Z,53.44
2023-09-28T00:17:09.679Z,53.50
2023-09-28T00:17:22.736Z,53.12
2023-09-28T00:17:35.973Z,53.35
2023-09-28T00:17:49.264Z,53.44
2023-09-28T00:18:02.647Z,53.38
2023-09-28T00:18:15.550Z,53.41
2023-09-28T00:18:28.558Z,53.47
2023-09-28T00:18:41.404Z,53.49
2023-09-28T00:18:54.229Z,53.68
2023-09-28T00:19:09.821Z,53.66
2023-09-28T00:19:22.720Z,53.60
2023-09-28T00:19:35.806Z,53.67
2023-09-28T00:19:48.715Z,53.82
2023-09-28T00:20:01.732Z,53.91
2023-09-28T00:20:18.943Z,53.79
2023-09-28T00:20:31.900Z,53.68
2023-09-28T00:20:45.103Z,53.76
2023-09-28T00:20:58.050Z,53.67
2023-09-28T00:21:10.907Z,53.62
2023-09-28T00:21:23.728Z,53.66
2023-09-28T00:21:36.853Z,53.62
2023-09-28T00:21:50.259Z,53.48
2023-09-28T00:22:03.100Z,53.51
2023-09-28T00:22:16.044Z,53.58
2023-09-28T00:22:28.942Z,53.71
2023-09-28T00:22:44.947Z,53.56
2023-09-28T00:22:58.768Z,53.50
2023-09-28T00:23:11.677Z,53.40
2023-09-28T00:23:24.560Z,53.36
2023-09-28T00:23:37.659Z,53.31
2023-09-28T00:23:50.524Z,53.34
2023-09-28T00:24:04.048Z,53.49
2023-09-28T00:24:17.069Z,53.15
2023-09-28T00:24:29.955Z,53.24
2023-09-28T00:24:43.823Z,53.75
2023-09-28T00:24:57.031Z,53.31
2023-09-28T00:25:13.024Z,53.29
2023-09-28T00:25:25.920Z,53.12
2023-09-28T00:25:38.838Z,53.29
2023-09-28T00:25:52.418Z,53.16
2023-09-28T00:26:06.157Z,53.20
2023-09-28T00:26:20.373Z,53.30
2023-09-28T00:26:33.239Z,53.34
2023-09-28T00:26:48.418Z,53.41
2023-09-28T00:27:01.231Z,53.52
2023-09-28T00:27:14.058Z,53.58
2023-09-28T00:27:27.096Z,53.65
2023-09-28T00:27:40.511Z,53.60
2023-09-28T00:28:02.358Z,53.67
2023-09-28T00:28:15.278Z,53.68
2023-09-28T00:28:28.688Z,53.54
2023-09-28T00:28:41.550Z,53.47
2023-09-28T00:28:54.453Z,53.37
2023-09-28T00:29:07.487Z,53.39
2023-09-28T00:29:20.620Z,53.48
2023-09-28T00:29:33.557Z,53.60
2023-09-28T00:29:47.940Z,53.56
2023-09-28T00:30:00.772Z,53.61
2023-09-28T00:30:14.947Z,53.67
2023-09-28T00:30:28.032Z,53.63
2023-09-28T00:30:40.940Z,53.71
2023-09-28T00:30:53.894Z,53.49
2023-09-28T00:31:07.511Z,53.58
2023-09-28T00:31:20.545Z,53.66
2023-09-28T00:31:33.479Z,53.81
2023-09-28T00:31:46.430Z,53.82
2023-09-28T00:31:59.337Z,53.67
2023-09-28T00:32:13.629Z,53.45
2023-09-28T00:32:26.480Z,53.52
2023-09-28T00:32:39.489Z,53.52
2023-09-28T00:32:53.851Z,53.45
2023-09-28T00:33:07.173Z,53.53
2023-09-28T00:33:20.057Z,53.42
2023-09-28T00:33:32.858Z,53.28
2023-09-28T00:33:45.710Z,53.40
2023-09-28T00:33:58.550Z,53.60
2023-09-28T00:34:11.358Z,53.54
2023-09-28T00:34:24.225Z,53.76
2023-09-28T00:34:37.111Z,53.82
2023-09-28T00:34:51.935Z,53.85
2023-09-28T00:35:08.339Z,53.75
2023-09-28T00:35:21.477Z,53.78
2023-09-28T00:35:52.867Z,53.61
2023-09-28T00:36:05.677Z,53.76
2023-09-28T00:36:19.028Z,53.64
2023-09-28T00:36:31.852Z,53.67
2023-09-28T00:36:44.992Z,53.81
2023-09-28T00:36:57.860Z,53.62
2023-09-28T00:37:10.753Z,53.55
2023-09-28T00:37:23.567Z,53.78
2023-09-28T00:37:36.443Z,53.79
2023-09-28T00:37:49.854Z,53.95
2023-09-28T00:38:02.887Z,53.98
2023-09-28T00:38:15.794Z,54.04
2023-09-28T00:38:28.628Z,54.07
2023-09-28T00:38:41.452Z,53.97
2023-09-28T00:38:54.259Z,53.77
2023-09-28T00:39:07.955Z,53.75
2023-09-28T00:39:20.783Z,53.80
2023-09-28T00:39:34.467Z,53.63
2023-09-28T00:39:49.945Z,53.71
2023-09-28T00:40:09.635Z,53.77
2023-09-28T00:40:34.743Z,54.05
2023-09-28T00:40:47.639Z,53.98
2023-09-28T00:41:00.515Z,53.98
2023-09-28T00:41:14.106Z,54.12
2023-09-28T00:41:27.061Z,54.04
2023-09-28T00:41:39.958Z,53.85
2023-09-28T00:41:52.847Z,53.83
2023-09-28T00:42:06.645Z,53.74
2023-09-28T00:42:19.466Z,53.68
2023-09-28T00:42:32.301Z,53.60
2023-09-28T00:42:45.954Z,53.66
2023-09-28T00:42:59.121Z,53.65
2023-09-28T00:43:11.913Z,53.64
2023-09-28T00:43:30.984Z,53.52
2023-09-28T00:43:44.144Z,53.63
2023-09-28T00:44:01.339Z,53.58
2023-09-28T00:44:14.716Z,53.45
2023-09-28T00:44:27.638Z,53.61
2023-09-28T00:44:40.454Z,53.69
2023-09-28T00:44:53.322Z,53.71
2023-09-28T00:45:06.876Z,53.63
2023-09-28T00:45:21.222Z,53.76
2023-09-28T00:45:34.028Z,53.59
2023-09-28T00:45:47.524Z,53.60
2023-09-28T00:46:00.390Z,53.64
2023-09-28T00:46:15.722Z,53.56
2023-09-28T00:46:33.435Z,53.64
2023-09-28T00:46:46.470Z,53.67
2023-09-28T00:46:59.402Z,53.91
2023-09-28T00:47:12.379Z,53.77
2023-09-28T00:47:25.302Z,53.71
2023-09-28T00:47:41.229Z,53.68
2023-09-28T00:48:00.756Z,53.81
2023-09-28T00:48:13.705Z,53.66
2023-09-28T00:48:26.553Z,53.71
2023-09-28T00:48:42.330Z,53.81
2023-09-28T00:49:04.797Z,53.67
2023-09-28T00:49:17.695Z,53.82
2023-09-28T00:49:30.671Z,53.90
2023-09-28T00:49:45.051Z,53.89
2023-09-28T00:49:57.993Z,53.74
2023-09-28T00:50:16.075Z,53.82
2023-09-28T00:50:29.833Z,53.72
2023-09-28T00:50:42.751Z,53.70
2023-09-28T00:50:55.580Z,53.72
2023-09-28T00:51:08.430Z,53.90
2023-09-28T00:51:21.257Z,53.83
2023-09-28T00:51:34.991Z,53.88
2023-09-28T00:51:48.507Z,53.91
2023-09-28T00:52:01.339Z,54.02
2023-09-28T00:52:17.774Z,54.21
2023-09-28T00:52:31.159Z,54.10
2023-09-28T00:52:45.108Z,53.99
2023-09-28T00:53:01.893Z,54.11
2023-09-28T00:53:15.789Z,54.02
2023-09-28T00:53:28.633Z,53.92
2023-09-28T00:53:41.452Z,54.09
2023-09-28T00:53:55.741Z,54.21
2023-09-28T00:54:08.587Z,53.99
2023-09-28T00:54:22.021Z,54.05
2023-09-28T00:54:35.886Z,53.96
2023-09-28T00:54:48.704Z,53.98
2023-09-28T00:55:01.514Z,54.14
2023-09-28T00:55:16.292Z,53.94
2023-09-28T00:55:29.326Z,54.10
2023-09-28T00:55:42.276Z,54.10
2023-09-28T00:55:57.881Z,54.14
2023-09-28T00:56:10.804Z,54.12
2023-09-28T00:56:24.306Z,54.30
2023-09-28T00:56:37.725Z,54.23
2023-09-28T00:56:50.956Z,54.31
2023-09-28T00:57:05.175Z,54.15
2023-09-28T00:57:18.815Z,54.00
2023-09-28T00:57:34.760Z,54.00
2023-09-28T00:57:48.187Z,53.85
2023-09-28T00:58:02.483Z,53.86
2023-09-28T00:58:15.447Z,53.80
2023-09-28T00:58:28.314Z,53.78
2023-09-28T00:58:41.169Z,53.75
2023-09-28T00:58:54.056Z,53.76
2023-09-28T00:59:07.116Z,53.81
2023-09-28T00:59:20.163Z,53.99
2023-09-28T00:59:33.340Z,54.02
2023-09-28T00:59:46.191Z,53.95
2023-09-28T00:59:59.024Z,53.95
2023-09-28T01:00:29.572Z,54.12
2023-09-28T01:00:42.574Z,54.05
2023-09-28T01:00:55.560Z,53.98
2023-09-28T01:01:11.460Z,54.07
2023-09-28T01:01:28.260Z,54.25
2023-09-28T01:01:41.143Z,54.11
2023-09-28T01:01:56.567Z,54.06
2023-09-28T01:02:09.535Z,54.10
2023-09-28T01:02:22.533Z,53.90
2023-09-28T01:02:35.419Z,53.94
2023-09-28T01:02:52.319Z,53.95
2023-09-28T01:03:09.592Z,54.05
2023-09-28T01:03:22.699Z,54.18
2023-09-28T01:03:36.093Z,54.21
2023-09-28T01:03:49.442Z,53.85
2023-09-28T01:04:06.230Z,53.74
2023-09-28T01:04:19.086Z,53.74
2023-09-28T01:04:31.914Z,53.92
2023-09-28T01:04:44.729Z,53.75
2023-09-28T01:04:57.590Z,53.83
2023-09-28T01:05:10.464Z,53.65
2023-09-28T01:05:34.399Z,53.74
2023-09-28T01:05:47.302Z,53.84
2023-09-28T01:06:00.124Z,53.90
2023-09-28T01:06:13.966Z,53.92
2023-09-28T01:06:26.829Z,54.06
2023-09-28T01:06:40.793Z,54.09
2023-09-28T01:06:53.617Z,54.00
2023-09-28T01:07:08.071Z,54.00
2023-09-28T01:07:31.270Z,54.05
2023-09-28T01:07:44.100Z,53.80
2023-09-28T01:07:57.298Z,53.77
2023-09-28T01:08:13.581Z,53.83
2023-09-28T01:08:26.587Z,53.99
2023-09-28T01:08:39.435Z,54.12
2023-09-28T01:08:53.982Z,54.12
2023-09-28T01:09:11.068Z,53.92
2023-09-28T01:09:25.502Z,54.06
2023-09-28T01:09:38.334Z,53.84
2023-09-28T01:09:51.182Z,53.99
2023-09-28T01:10:04.516Z,54.05
2023-09-28T01:10:24.282Z,54.14
2023-09-28T01:10:37.853Z,53.99
2023-09-28T01:10:50.814Z,54.23
2023-09-28T01:11:07.546Z,54.25
2023-09-28T01:11:21.576Z,54.12
2023-09-28T01:11:34.505Z,53.98
2023-09-28T01:11:47.586Z,54.08
2023-09-28T01:12:00.544Z,54.22
2023-09-28T01:12:13.730Z,53.93
2023-09-28T01:12:26.600Z,53.94
2023-09-28T01:12:42.417Z,53.95
2023-09-28T01:12:56.461Z,54.06
2023-09-28T01:13:13.334Z,53.79
2023-09-28T01:13:28.389Z,53.88
2023-09-28T01:13:41.396Z,53.85
2023-09-28T01:13:54.484Z,53.83
2023-09-28T01:14:07.516Z,53.86
2023-09-28T01:14:22.495Z,54.05
2023-09-28T01:14:36.199Z,54.15
2023-09-28T01:14:53.403Z,54.18
2023-09-28T01:15:12.447Z,54.06
2023-09-28T01:15:26.019Z,54.14
2023-09-28T01:15:47.638Z,54.02
2023-09-28T01:16:00.497Z,54.00
2023-09-28T01:16:14.420Z,53.69
2023-09-28T01:16:27.494Z,53.81
2023-09-28T01:16:40.926Z,53.80
2023-09-28T01:16:54.093Z,53.95
2023-09-28T01:17:09.192Z,53.86
2023-09-28T01:17:22.185Z,53.57
2023-09-28T01:17:35.124Z,53.37
2023-09-28T01:17:48.062Z,53.50
2023-09-28T01:18:01.546Z,53.66
2023-09-28T01:18:17.920Z,53.43
2023-09-28T01:18:30.802Z,53.33
2023-09-28T01:18:43.645Z,53.57
2023-09-28T01:18:56.477Z,53.63
2023-09-28T01:19:10.284Z,53.54
2023-09-28T01:19:23.250Z,53.48
2023-09-28T01:19:36.421Z,53.46
2023-09-28T01:19:49.263Z,53.53
2023-09-28T01:20:05.078Z,53.56
2023-09-28T01:20:26.521Z,53.58
2023-09-28T01:20:46.516Z,53.69
2023-09-28T01:20:59.450Z,53.65
2023-09-28T01:21:12.282Z,53.60
2023-09-28T01:21:25.569Z,53.67
2023-09-28T01:21:38.451Z,53.71
2023-09-28T01:21:52.435Z,53.79
2023-09-28T01:22:11.410Z,53.77
2023-09-28T01:22:24.480Z,53.70
2023-09-28T01:22:37.301Z,53.51
2023-09-28T01:22:51.075Z,53.65
2023-09-28T01:23:05.973Z,53.73
2023-09-28T01:23:18.905Z,53.82
2023-09-28T01:23:31.828Z,53.72
2023-09-28T01:23:44.834Z,53.70
2023-09-28T01:23:58.330Z,53.82
2023-09-28T01:24:12.047Z,53.86
2023-09-28T01:24:24.903Z,53.87
2023-09-28T01:24:37.736Z,54.01
2023-09-28T01:24:50.584Z,53.97
2023-09-28T01:25:05.027Z,54.07
2023-09-28T01:25:20.115Z,54.03
2023-09-28T01:25:33.582Z,54.09
2023-09-28T01:25:48.479Z,53.96
2023-09-28T01:26:02.965Z,54.08
2023-09-28T01:26:15.930Z,54.25
2023-09-28T01:26:31.733Z,54.12
2023-09-28T01:26:44.574Z,54.12
2023-09-28T01:26:57.453Z,54.19
2023-09-28T01:27:10.325Z,54.15
2023-09-28T01:27:23.211Z,54.15
2023-09-28T01:27:36.543Z,54.21
2023-09-28T01:27:49.445Z,54.14
2023-09-28T01:28:02.297Z,54.21
2023-09-28T01:28:17.912Z,54.15
2023-09-28T01:28:30.849Z,54.07
2023-09-28T01:28:43.968Z,54.18
2023-09-28T01:28:57.568Z,54.14
2023-09-28T01:29:11.216Z,54.15
2023-09-28T01:29:24.074Z,54.29
2023-09-28T01:29:36.910Z,54.20
2023-09-28T01:29:49.797Z,54.25
2023-09-28T01:30:04.749Z,54.29
2023-09-28T01:30:17.571Z,54.11
2023-09-28T01:30:30.435Z,54.07
2023-09-28T01:30:43.320Z,54.05
2023-09-28T01:30:56.381Z,53.99
2023-09-28T01:31:09.232Z,54.08
2023-09-28T01:31:22.076Z,53.87
2023-09-28T01:31:34.898Z,53.97
2023-09-28T01:31:47.787Z,53.88
2023-09-28T01:32:00.703Z,54.21
2023-09-28T01:32:13.593Z,54.15
2023-09-28T01:32:26.498Z,53.93
2023-09-28T01:32:39.649Z,54.16
2023-09-28T01:32:53.841Z,54.06
2023-09-28T01:33:08.932Z,54.07
2023-09-28T01:33:21.787Z,53.97
2023-09-28T01:33:34.728Z,53.93
2023-09-28T01:33:47.649Z,53.98
2023-09-28T01:34:00.527Z,53.99
2023-09-28T01:34:13.415Z,53.98
2023-09-28T01:34:26.334Z,54.13
2023-09-28T01:34:39.293Z,53.97
2023-09-28T01:34:52.221Z,53.99
2023-09-28T01:35:06.070Z,54.01
2023-09-28T01:35:19.055Z,53.93
2023-09-28T01:35:31.888Z,53.95
2023-09-28T01:35:44.768Z,53.81
2023-09-28T01:36:28.089Z,53.97
2023-09-28T01:36:41.328Z,53.88
2023-09-28T01:36:54.130Z,53.74
2023-09-28T01:37:06.964Z,53.68
2023-09-28T01:37:20.465Z,53.75
2023-09-28T01:38:00.238Z,53.78
2023-09-28T01:38:18.898Z,53.81
2023-09-28T01:38:41.957Z,53.70
2023-09-28T01:39:03.434Z,53.33
2023-09-28T01:39:16.881Z,53.43
2023-09-28T01:39:29.725Z,53.24
2023-09-28T01:39:42.548Z,53.48
2023-09-28T01:39:55.363Z,53.84
2023-09-28T01:40:09.506Z,53.63
2023-09-28T01:40:22.328Z,53.69
2023-09-28T01:40:35.164Z,53.58
2023-09-28T01:40:48.867Z,53.88
2023-09-28T01:41:01.714Z,53.70
2023-09-28T01:41:14.622Z,53.57
2023-09-28T01:41:27.569Z,53.64
2023-09-28T01:41:40.391Z,53.50
2023-09-28T01:41:53.237Z,53.64
2023-09-28T01:42:06.133Z,53.45
2023-09-28T01:42:18.954Z,53.23
2023-09-28T01:42:31.954Z,53.26
2023-09-28T01:42:45.013Z,53.17
2023-09-28T01:42:57.854Z,53.34
2023-09-28T01:43:11.341Z,53.30
2023-09-28T01:43:24.192Z,53.35
2023-09-28T01:43:38.167Z,53.52
2023-09-28T01:43:51.241Z,53.33
2023-09-28T01:44:04.541Z,53.52
2023-09-28T01:44:17.644Z,53.37
2023-09-28T01:44:30.501Z,53.57
2023-09-28T01:44:43.326Z,53.37
2023-09-28T01:44:56.154Z,53.24
2023-09-28T01:45:09.270Z,53.22
2023-09-28T01:45:22.166Z,53.28
2023-09-28T01:45:34.995Z,53.46
2023-09-28T01:45:47.849Z,53.66
2023-09-28T01:46:00.819Z,53.74
2023-09-28T01:46:13.979Z,53.65
2023-09-28T01:46:26.916Z,53.42
2023-09-28T01:46:40.166Z,53.50
2023-09-28T01:46:53.091Z,53.65
2023-09-28T01:47:05.982Z,53.68
2023-09-28T01:47:18.852Z,53.72
2023-09-28T01:47:31.732Z,53.60
2023-09-28T01:47:44.585Z,53.68
2023-09-28T01:47:57.571Z,53.28
2023-09-28T01:48:10.529Z,53.00
2023-09-28T01:48:23.354Z,53.15
2023-09-28T01:48:37.039Z,53.18
2023-09-28T01:48:49.968Z,53.04
2023-09-28T01:49:02.867Z,53.24
2023-09-28T01:49:15.684Z,52.93
2023-09-28T01:49:28.494Z,52.87
2023-09-28T01:49:41.964Z,52.64
2023-09-28T01:49:54.981Z,53.00
2023-09-28T01:50:08.147Z,53.22
2023-09-28T01:50:21.084Z,53.26
2023-09-28T01:50:34.310Z,53.16
2023-09-28T01:50:47.305Z,53.26
2023-09-28T01:51:03.060Z,53.17
2023-09-28T01:51:15.932Z,52.92
2023-09-28T01:51:28.835Z,52.90
2023-09-28T01:51:41.772Z,52.88
2023-09-28T01:51:54.596Z,52.85
2023-09-28T01:52:07.433Z,53.21
2023-09-28T01:52:20.325Z,53.34
2023-09-28T01:52:33.163Z,53.33
2023-09-28T01:52:46.038Z,53.42
2023-09-28T01:52:58.948Z,53.52
2023-09-28T01:53:11.881Z,53.32
2023-09-28T01:53:24.937Z,53.15
2023-09-28T01:53:38.942Z,53.03
2023-09-28T01:53:52.171Z,53.08
2023-09-28T01:54:05.327Z,53.31
2023-09-28T01:54:18.266Z,53.24
2023-09-28T01:54:31.087Z,53.29
2023-09-28T01:54:44.355Z,53.18
2023-09-28T01:54:57.264Z,53.00
2023-09-28T01:55:10.593Z,52.78
2023-09-28T01:55:24.490Z,52.96
2023-09-28T01:55:37.400Z,52.96
2023-09-28T01:55:51.508Z,52.96
2023-09-28T01:56:05.622Z,53.17
2023-09-28T01:56:19.693Z,53.03
2023-09-28T01:56:32.520Z,53.44
2023-09-28T01:56:45.424Z,53.29
2023-09-28T01:56:58.236Z,53.22
2023-09-28T01:57:11.021Z,53.12
2023-09-28T01:57:23.886Z,53.21
2023-09-28T01:57:37.035Z,53.46
2023-09-28T01:57:49.967Z,53.45
2023-09-28T01:58:04.977Z,53.51
2023-09-28T01:58:17.835Z,53.49
2023-09-28T01:58:31.229Z,53.63
2023-09-28T01:58:46.226Z,53.57
2023-09-28T01:58:59.073Z,53.65
2023-09-28T01:59:12.063Z,53.72
2023-09-28T01:59:24.957Z,53.57
2023-09-28T01:59:39.030Z,53.57
2023-09-28T01:59:51.838Z,53.75
2023-09-28T02:00:21.119Z,53.50
2023-09-28T02:00:34.138Z,53.43
2023-09-28T02:00:47.423Z,53.69
2023-09-28T02:01:00.271Z,53.60
2023-09-28T02:01:28.332Z,53.37
2023-09-28T02:01:41.483Z,53.35
2023-09-28T02:01:54.454Z,53.46
2023-09-28T02:02:07.405Z,53.48
2023-09-28T02:02:22.395Z,53.60
2023-09-28T02:02:37.429Z,53.33
2023-09-28T02:02:52.920Z,53.49
2023-09-28T02:03:07.022Z,53.41
2023-09-28T02:03:23.000Z,53.61
2023-09-28T02:03:36.006Z,53.55
2023-09-28T02:03:48.956Z,53.56
2023-09-28T02:04:01.827Z,53.70
2023-09-28T02:04:14.670Z,53.60
2023-09-28T02:04:27.496Z,53.48
2023-09-28T02:04:40.348Z,53.53
2023-09-28T02:04:53.258Z,53.56
2023-09-28T02:05:07.567Z,53.80
2023-09-28T02:05:21.079Z,53.81
2023-09-28T02:05:34.402Z,53.59
2023-09-28T02:05:47.440Z,53.67
2023-09-28T02:06:00.305Z,53.47
2023-09-28T02:06:13.162Z,53.47
2023-09-28T02:06:26.003Z,53.71
2023-09-28T02:06:38.891Z,53.58
2023-09-28T02:06:51.730Z,53.62
2023-09-28T02:07:05.497Z,53.70
2023-09-28T02:07:18.797Z,53.54
2023-09-28T02:07:34.055Z,53.90
2023-09-28T02:07:46.958Z,53.80
2023-09-28T02:08:00.786Z,53.75
2023-09-28T02:08:13.741Z,53.90
2023-09-28T02:08:26.569Z,53.71
2023-09-28T02:08:39.375Z,53.85
2023-09-28T02:08:52.254Z,53.68
2023-09-28T02:09:06.727Z,53.82
2023-09-28T02:09:19.971Z,53.52
2023-09-28T02:09:32.786Z,53.11
2023-09-28T02:09:45.644Z,53.28
2023-09-28T02:09:58.656Z,53.23
2023-09-28T02:10:11.845Z,53.50
2023-09-28T02:10:24.682Z,53.57
2023-09-28T02:10:37.601Z,53.70
2023-09-28T02:10:50.430Z,53.70
2023-09-28T02:11:04.421Z,53.77
2023-09-28T02:11:17.361Z,53.54
2023-09-28T02:11:30.256Z,53.40
2023-09-28T02:11:44.885Z,53.58
2023-09-28T02:11:58.185Z,53.47
2023-09-28T02:12:11.935Z,53.50
2023-09-28T02:12:24.776Z,53.46
2023-09-28T02:12:42.788Z,53.58
2023-09-28T02:12:58.277Z,53.25
2023-09-28T02:13:13.514Z,53.40
2023-09-28T02:13:26.362Z,53.55
2023-09-28T02:13:39.304Z,53.62
2023-09-28T02:13:52.349Z,53.46
2023-09-28T02:14:05.428Z,53.29
2023-09-28T02:14:18.278Z,52.90
2023-09-28T02:14:31.173Z,53.16
2023-09-28T02:14:44.024Z,52.84
2023-09-28T02:14:56.855Z,52.78
2023-09-28T02:15:15.955Z,52.86
2023-09-28T02:15:29.012Z,52.67
2023-09-28T02:15:43.448Z,52.78
2023-09-28T02:15:56.287Z,52.63
2023-09-28T02:16:12.726Z,52.70
2023-09-28T02:16:25.600Z,52.85
2023-09-28T02:16:38.476Z,52.79
2023-09-28T02:16:51.451Z,52.84
2023-09-28T02:17:04.356Z,52.30
2023-09-28T02:17:17.250Z,52.02
2023-09-28T02:17:30.173Z,52.02
2023-09-28T02:17:46.298Z,51.89
2023-09-28T02:17:59.225Z,52.00
2023-09-28T02:18:12.064Z,52.25
2023-09-28T02:18:24.912Z,52.08
2023-09-28T02:18:37.708Z,51.67
2023-09-28T02:18:51.296Z,51.63
2023-09-28T02:19:05.611Z,51.71
2023-09-28T02:19:18.449Z,51.64
2023-09-28T02:19:31.289Z,51.63
2023-09-28T02:19:44.158Z,51.58
2023-09-28T02:19:57.601Z,51.70
2023-09-28T02:20:11.096Z,51.76
2023-09-28T02:20:24.449Z,51.95
2023-09-28T02:20:37.569Z,51.80
2023-09-28T02:20:50.628Z,51.71
2023-09-28T02:21:04.092Z,51.47
2023-09-28T02:21:16.977Z,51.31
2023-09-28T02:21:30.634Z,51.43
2023-09-28T02:21:45.986Z,52.03
2023-09-28T02:21:58.886Z,51.81
2023-09-28T02:22:13.047Z,51.58
2023-09-28T02:22:25.866Z,51.45
2023-09-28T02:22:44.934Z,51.48
2023-09-28T02:22:58.569Z,51.47
2023-09-28T02:23:11.554Z,51.49
2023-09-28T02:23:24.411Z,51.60
2023-09-28T02:23:37.272Z,51.44
2023-09-28T02:23:50.228Z,51.46
2023-09-28T02:24:03.050Z,51.30
2023-09-28T02:24:15.929Z,51.53
2023-09-28T02:24:28.748Z,51.27
2023-09-28T02:24:41.559Z,51.24
2023-09-28T02:24:54.384Z,51.38
2023-09-28T02:25:08.306Z,51.56
2023-09-28T02:25:23.407Z,51.76
2023-09-28T02:25:36.285Z,51.67
2023-09-28T02:25:49.154Z,51.38
2023-09-28T02:26:08.637Z,51.21
2023-09-28T02:26:21.517Z,50.80
2023-09-28T02:26:35.252Z,50.83
2023-09-28T02:26:48.676Z,51.10
2023-09-28T02:27:01.521Z,51.03
2023-09-28T02:27:14.492Z,51.17
2023-09-28T02:27:27.517Z,51.20
2023-09-28T02:27:40.344Z,51.26
2023-09-28T02:27:53.645Z,51.19
2023-09-28T02:28:06.509Z,51.35
2023-09-28T02:28:19.325Z,51.27
2023-09-28T02:28:32.166Z,51.18
2023-09-28T02:28:45.115Z,51.22
2023-09-28T02:28:58.665Z,51.47
2023-09-28T02:29:13.059Z,51.38
2023-09-28T02:29:25.979Z,51.45
2023-09-28T02:29:38.843Z,51.48
2023-09-28T02:29:51.645Z,51.48
2023-09-28T02:30:06.180Z,51.54
2023-09-28T02:30:20.893Z,51.44
2023-09-28T02:30:33.732Z,51.46
2023-09-28T02:30:46.617Z,51.50
2023-09-28T02:31:06.888Z,51.58
2023-09-28T02:31:19.767Z,51.50
2023-09-28T02:31:33.026Z,51.64
2023-09-28T02:31:45.894Z,51.37
2023-09-28T02:31:58.963Z,51.50
2023-09-28T02:32:14.686Z,51.14
2023-09-28T02:32:27.663Z,51.11
2023-09-28T02:32:41.311Z,51.20
2023-09-28T02:32:57.163Z,51.24
2023-09-28T02:33:12.083Z,51.29
2023-09-28T02:33:26.480Z,51.40
2023-09-28T02:33:39.350Z,51.19
2023-09-28T02:33:52.610Z,51.47
2023-09-28T02:34:05.603Z,51.42
2023-09-28T02:34:18.452Z,51.25
2023-09-28T02:34:34.584Z,51.10
2023-09-28T02:34:48.203Z,51.13
2023-09-28T02:35:01.126Z,51.13
2023-09-28T02:35:15.823Z,51.25
2023-09-28T02:35:30.069Z,51.25
2023-09-28T02:35:43.062Z,51.15
2023-09-28T02:35:55.882Z,51.37
2023-09-28T02:36:09.418Z,51.31
2023-09-28T02:36:22.671Z,51.29
2023-09-28T02:36:36.530Z,51.38
2023-09-28T02:36:49.544Z,51.41
2023-09-28T02:37:02.527Z,51.20
2023-09-28T02:37:15.335Z,51.05
2023-09-28T02:37:28.157Z,51.20
2023-09-28T02:37:41.431Z,51.07
2023-09-28T02:37:55.192Z,51.01
2023-09-28T02:38:08.190Z,50.75
2023-09-28T02:38:21.124Z,50.91
2023-09-28T02:38:34.118Z,50.73
2023-09-28T02:38:47.395Z,50.71
2023-09-28T02:39:00.279Z,50.82
2023-09-28T02:39:13.726Z,50.79
2023-09-28T02:39:29.484Z,50.86
2023-09-28T02:39:42.373Z,51.00
2023-09-28T02:39:55.226Z,51.09
2023-09-28T02:40:09.314Z,50.94
2023-09-28T02:40:22.234Z,51.01
2023-09-28T02:40:35.139Z,50.97
2023-09-28T02:40:48.008Z,51.17
2023-09-28T02:41:00.880Z,51.07
2023-09-28T02:41:20.226Z,51.17
2023-09-28T02:41:33.054Z,51.12
2023-09-28T02:41:45.898Z,51.21
2023-09-28T02:41:58.718Z,51.26
2023-09-28T02:42:11.760Z,51.26
2023-09-28T02:42:24.633Z,51.22
2023-09-28T02:42:37.506Z,51.24
2023-09-28T02:42:50.667Z,51.01
2023-09-28T02:43:03.802Z,50.79
2023-09-28T02:43:16.665Z,50.73
2023-09-28T02:43:29.529Z,50.27
2023-09-28T02:43:42.390Z,50.17
2023-09-28T02:43:55.454Z,50.06
2023-09-28T02:44:08.471Z,50.00
2023-09-28T02:44:21.372Z,50.04
2023-09-28T02:44:35.588Z,50.04
2023-09-28T02:44:49.494Z,50.13
2023-09-28T02:45:02.308Z,50.37
2023-09-28T02:45:15.398Z,50.49
2023-09-28T02:45:28.285Z,50.53
2023-09-28T02:45:41.126Z,50.68
2023-09-28T02:45:53.971Z,50.45
2023-09-28T02:46:07.592Z,50.53
2023-09-28T02:46:20.517Z,50.73
2023-09-28T02:46:33.342Z,50.85
2023-09-28T02:46:46.261Z,50.70
2023-09-28T02:46:59.118Z,50.30
2023-09-28T02:47:12.066Z,50.12
2023-09-28T02:47:25.313Z,50.09
2023-09-28T02:47:42.760Z,49.99
2023-09-28T02:47:56.075Z,50.40
2023-09-28T02:48:09.766Z,50.33
2023-09-28T02:48:22.611Z,50.28
2023-09-28T02:48:35.454Z,50.10
2023-09-28T02:48:48.307Z,50.03
2023-09-28T02:49:01.209Z,49.92
2023-09-28T02:49:14.052Z,50.00
2023-09-28T02:49:28.959Z,50.19
2023-09-28T02:49:41.801Z,50.21
2023-09-28T02:49:55.684Z,50.25
2023-09-28T02:50:10.784Z,50.20
2023-09-28T02:50:23.766Z,49.93
2023-09-28T02:50:36.686Z,49.86
2023-09-28T02:50:49.840Z,49.84
2023-09-28T02:51:04.707Z,50.00
2023-09-28T02:51:18.469Z,49.39
2023-09-28T02:51:31.290Z,49.75
2023-09-28T02:51:44.488Z,49.97
2023-09-28T02:51:57.311Z,49.92
2023-09-28T02:52:11.261Z,49.96
2023-09-28T02:52:24.096Z,50.09
2023-09-28T02:52:41.597Z,49.88
2023-09-28T02:52:54.975Z,49.65
2023-09-28T02:53:08.681Z,49.76
2023-09-28T02:53:21.550Z,49.61
2023-09-28T02:53:36.333Z,49.77
2023-09-28T02:53:49.183Z,49.83
2023-09-28T02:54:02.002Z,49.91
2023-09-28T02:54:14.864Z,50.00
2023-09-28T02:54:28.017Z,49.71
2023-09-28T02:54:40.820Z,49.89
2023-09-28T02:54:53.660Z,49.96
2023-09-28T02:55:07.550Z,50.05
2023-09-28T02:55:20.402Z,50.13
2023-09-28T02:55:34.008Z,50.15
2023-09-28T02:55:46.930Z,50.09
2023-09-28T02:56:00.307Z,50.20
2023-09-28T02:56:13.986Z,50.24
2023-09-28T02:56:26.832Z,50.10
2023-09-28T02:56:40.474Z,50.26
2023-09-28T02:56:54.737Z,50.20
2023-09-28T02:57:07.620Z,50.35
2023-09-28T02:57:20.441Z,50.47
2023-09-28T02:57:33.335Z,50.27
2023-09-28T02:57:46.259Z,50.52
2023-09-28T02:57:59.103Z,50.33
2023-09-28T02:58:11.912Z,50.48
2023-09-28T02:58:26.123Z,50.67